map of GIZ home
GIZ - Airport
Location
City:  Jazan, Saudi Arabia
Near (Alt.):Jizan, Gizan
Name:King Abdullah bin Abdulaziz Airport
ICAO:OEGN
IATA:GIZ

Details
Type:Airport (Aerodrome, Airfield)
Use:Public/Civil
Latitude:1654'04"N (16.901111)
Longitude:4235'09"E (42.585833)
Elevation:20 ft (6 m)
Variation:2.68E (WMM2015 magnetic declination)
0.04 annual change
Runways:1
Longest:10007 × 148 ft (3050 × 45 m), paved

Time
Time Zone:UTC+3
Local Time:

Weather
METAR:OEGN 150500Z 10004KT CAVOK 27/22 Q1017 NOSIG

Related Locations
Nearby:
Farthest:TKV: 12369 mi / 19906 km
Tatakoto, PF

Find:

   beyond  
but within

Other Information
Maps:
NOTAMs:
Links:
Sources:

  
  • flag of Saudi Arabia
  

Sectional Chart

Flight Planning
at skyvector.com

Satellite Image

Google Maps Satellite view

 

Copyright © 2004-2018 Karl L. Swartz. All rights reserved.
The Great Circle Mapper name and logo are trademarks of the Great Circle Mapper.
All other trademarks mentioned herein belong to their respective owners.
Please see credits for attibutions and further copyright information.

  Follow gcmap on Facebook Follow gcmap on Twitter Follow gcmap on Google+ GCmap on LinkedIn

hCard Microformat

Geo Microformat